Time;durP1;ratioP1;P1;durP2;ratioP2;P2;SDS_P1;SDS_P2;PMS_P1;PMS_P2;Temp;Humidity;BMP_temperature;BMP_pressure;BME280_temperature;BME280_humidity;BME280_pressure;Samples;Min_cycle;Max_cycle;Signal;HPM_P1;HPM_P2
2021/07/31 00:01:29;;;;;;;4.43;1.33;;;;;;;25.32;37.74;100419.66;5035159;28;20045;-62
2021/07/31 00:03:54;;;;;;;5.68;0.60;;;;;;;25.34;38.04;100420.22;5035288;28;20032;-62
2021/07/31 00:06:20;;;;;;;5.63;0.60;;;;;;;25.33;37.98;100413.06;5034742;28;20025;-61
2021/07/31 00:08:45;;;;;;;6.15;0.50;;;;;;;25.35;38.23;100413.66;5034586;28;20132;-61
2021/07/31 00:11:12;;;;;;;2.20;0.60;;;;;;;25.34;38.17;100412.84;5034941;28;20029;-61
2021/07/31 00:13:37;;;;;;;12.13;0.50;;;;;;;25.34;37.82;100412.00;5034796;28;20087;-61
2021/07/31 00:16:03;;;;;;;2.20;0.80;;;;;;;25.28;38.09;100401.97;5034911;28;20029;-61
2021/07/31 00:18:29;;;;;;;4.00;0.60;;;;;;;25.29;38.07;100417.38;5034771;28;20112;-61
2021/07/31 00:20:55;;;;;;;1.60;0.68;;;;;;;25.23;38.69;100410.91;5034435;28;20104;-62
2021/07/31 00:23:20;;;;;;;5.63;0.70;;;;;;;25.23;38.96;100413.66;5034660;28;20021;-62
2021/07/31 00:25:46;;;;;;;2.38;0.60;;;;;;;25.21;38.00;100421.25;5034814;28;20021;-62
2021/07/31 00:28:11;;;;;;;0.90;0.50;;;;;;;25.14;38.27;100408.75;5034345;28;20075;-62
2021/07/31 00:30:36;;;;;;;2.28;0.93;;;;;;;25.13;38.88;100421.59;5034357;28;20033;-62
2021/07/31 00:33:02;;;;;;;0.75;0.45;;;;;;;25.09;38.61;100412.19;5034338;28;20036;-62
2021/07/31 00:35:27;;;;;;;2.03;0.80;;;;;;;25.09;38.57;100423.16;5034484;28;20025;-62
2021/07/31 00:37:52;;;;;;;4.32;1.40;;;;;;;25.09;38.79;100419.56;5034237;28;20466;-61
2021/07/31 00:40:18;;;;;;;5.85;0.80;;;;;;;25.06;38.64;100417.28;5033861;28;20441;-61
2021/07/31 00:42:43;;;;;;;1.00;0.45;;;;;;;25.08;39.02;100424.22;5034135;28;20022;-61
2021/07/31 00:45:10;;;;;;;1.52;0.50;;;;;;;25.07;38.41;100421.72;5034329;28;20021;-61
2021/07/31 00:47:35;;;;;;;1.00;0.52;;;;;;;25.06;38.92;100425.53;5034452;28;20454;-62
2021/07/31 00:50:01;;;;;;;4.95;0.82;;;;;;;25.00;38.69;100412.75;5032843;28;20036;-61
2021/07/31 00:52:27;;;;;;;5.32;0.70;;;;;;;25.02;38.88;100416.06;5034546;28;20478;-61
2021/07/31 00:54:53;;;;;;;4.45;0.82;;;;;;;25.00;39.02;100408.09;5034130;28;20057;-61
2021/07/31 00:57:18;;;;;;;3.30;0.93;;;;;;;25.01;38.93;100406.22;5014937;28;20462;-62
2021/07/31 00:59:44;;;;;;;4.28;1.50;;;;;;;25.01;38.58;100408.94;4996421;28;20025;-61
2021/07/31 01:02:09;;;;;;;5.78;0.93;;;;;;;25.00;39.42;100412.75;5014366;28;20109;-61
2021/07/31 01:04:35;;;;;;;0.95;0.60;;;;;;;25.01;38.99;100414.44;5014268;28;20141;-61
2021/07/31 01:07:00;;;;;;;3.25;0.77;;;;;;;25.00;39.28;100418.22;5014265;28;20058;-61
2021/07/31 01:09:25;;;;;;;2.97;1.17;;;;;;;24.98;39.26;100420.38;5013170;28;20077;-61
2021/07/31 01:11:51;;;;;;;13.70;1.05;;;;;;;24.98;39.19;100421.22;5013423;28;20029;-62
2021/07/31 01:14:16;;;;;;;1.63;1.15;;;;;;;24.94;39.06;100424.63;5014187;28;20270;-62
2021/07/31 01:16:41;;;;;;;6.43;0.90;;;;;;;24.93;39.76;100423.78;5013888;28;20030;-62
2021/07/31 01:19:07;;;;;;;2.75;0.70;;;;;;;24.92;39.53;100424.03;5014143;28;20113;-62
2021/07/31 01:21:36;;;;;;;4.55;0.60;;;;;;;24.93;39.13;100409.28;5014100;28;20059;-61
2021/07/31 01:24:02;;;;;;;3.58;1.10;;;;;;;24.90;39.06;100419.63;5013821;28;20466;-61
2021/07/31 01:26:27;;;;;;;3.05;0.68;;;;;;;24.96;39.77;100433.47;5014069;28;20091;-61
2021/07/31 01:28:53;;;;;;;3.55;0.90;;;;;;;24.90;38.99;100422.34;5013823;28;20026;-61
2021/07/31 01:31:18;;;;;;;6.00;0.93;;;;;;;24.93;39.61;100417.50;5013148;28;20030;-61
2021/07/31 01:33:43;;;;;;;4.28;0.65;;;;;;;24.92;39.44;100410.34;5013931;28;20045;-61
2021/07/31 01:36:09;;;;;;;1.83;0.50;;;;;;;24.93;39.63;100418.31;5013991;28;20115;-62
2021/07/31 01:38:34;;;;;;;8.65;1.00;;;;;;;24.91;39.45;100414.97;5013983;28;20406;-61
2021/07/31 01:40:59;;;;;;;1.38;0.52;;;;;;;24.94;39.11;100419.16;5013966;28;20423;-61
2021/07/31 01:43:25;;;;;;;1.88;0.80;;;;;;;24.89;39.13;100415.22;5013948;28;20422;-61
2021/07/31 01:45:50;;;;;;;1.90;0.68;;;;;;;24.86;39.68;100401.97;5014147;28;20033;-61
2021/07/31 01:48:15;;;;;;;1.73;0.70;;;;;;;24.87;39.48;100425.56;5013817;28;20092;-61
2021/07/31 01:50:44;;;;;;;2.83;0.70;;;;;;;24.88;39.52;100420.91;5012726;28;20033;-61
2021/07/31 01:53:09;;;;;;;3.78;0.80;;;;;;;24.84;39.56;100403.28;5016421;28;20486;-61
2021/07/31 01:55:35;;;;;;;3.83;1.20;;;;;;;24.85;39.19;100411.25;5016539;28;20029;-62
2021/07/31 01:58:00;;;;;;;2.92;1.27;;;;;;;24.83;40.01;100413.41;5016113;28;20077;-62
2021/07/31 02:00:25;;;;;;;1.52;0.70;;;;;;;24.83;40.27;100418.88;5017677;28;20048;-62
2021/07/31 02:02:51;;;;;;;6.35;0.98;;;;;;;24.76;40.25;100412.63;5017883;28;20036;-62
2021/07/31 02:05:16;;;;;;;6.55;0.80;;;;;;;24.77;40.45;100419.78;5017481;28;20034;-62
2021/07/31 02:07:41;;;;;;;1.33;0.75;;;;;;;24.75;40.71;100421.91;5017023;28;20133;-63
2021/07/31 02:10:07;;;;;;;5.00;1.13;;;;;;;24.71;40.17;100431.66;5017444;28;20053;-62
2021/07/31 02:12:32;;;;;;;6.97;1.10;;;;;;;24.68;39.65;100425.81;5017351;28;20029;-61
2021/07/31 02:14:58;;;;;;;1.08;0.80;;;;;;;24.65;40.13;100429.84;5017315;28;20022;-61
2021/07/31 02:17:23;;;;;;;4.25;1.00;;;;;;;24.60;39.90;100423.38;5017288;28;20374;-61
2021/07/31 02:19:48;;;;;;;4.57;1.00;;;;;;;24.60;40.32;100429.69;5017207;28;20374;-61
2021/07/31 02:22:14;;;;;;;3.88;1.00;;;;;;;24.57;40.21;100430.16;5017218;28;20026;-61
2021/07/31 02:24:39;;;;;;;4.03;0.70;;;;;;;24.55;39.89;100424.06;5017138;28;20022;-61
2021/07/31 02:27:05;;;;;;;3.70;0.63;;;;;;;24.51;40.50;100420.09;5016843;28;20107;-61
2021/07/31 02:29:30;;;;;;;1.77;0.70;;;;;;;24.54;40.93;100425.13;5017120;28;20072;-62
2021/07/31 02:31:55;;;;;;;1.35;0.93;;;;;;;24.53;39.94;100415.25;5017180;28;20030;-61
2021/07/31 02:34:21;;;;;;;2.53;0.95;;;;;;;24.53;40.88;100423.47;5016602;28;20026;-61
2021/07/31 02:36:46;;;;;;;4.50;1.20;;;;;;;24.52;40.30;100421.78;5017274;28;20172;-61
2021/07/31 02:39:11;;;;;;;2.17;0.88;;;;;;;24.53;41.11;100420.75;5017215;28;20065;-61
2021/07/31 02:41:37;;;;;;;3.95;1.55;;;;;;;24.52;40.17;100424.53;4999010;28;20080;-61
2021/07/31 02:44:02;;;;;;;8.40;1.00;;;;;;;24.49;40.25;100415.94;5017151;28;20026;-61
2021/07/31 02:46:27;;;;;;;5.57;0.85;;;;;;;24.49;40.68;100416.78;5016416;28;20061;-61
2021/07/31 02:48:53;;;;;;;2.35;1.00;;;;;;;24.51;40.72;100425.59;5016993;28;20038;-61
2021/07/31 02:51:19;;;;;;;3.25;1.10;;;;;;;24.50;40.67;100407.50;5016392;28;20038;-61
2021/07/31 02:53:44;;;;;;;8.90;2.80;;;;;;;24.52;40.39;100404.53;5016389;28;20138;-62
2021/07/31 02:56:09;;;;;;;3.42;0.88;;;;;;;24.51;40.52;100419.31;5015567;28;20081;-61
2021/07/31 02:58:35;;;;;;;5.80;1.50;;;;;;;24.45;40.90;100410.09;5016884;28;20049;-61
2021/07/31 03:01:05;;;;;;;4.00;1.25;;;;;;;24.50;41.34;100412.97;5016532;28;20083;-61
2021/07/31 03:03:30;;;;;;;3.50;1.45;;;;;;;24.48;40.60;100420.59;5015803;28;20022;-61
2021/07/31 03:05:57;;;;;;;3.67;2.25;;;;;;;24.46;41.42;100408.16;5016414;28;20033;-62
2021/07/31 03:08:22;;;;;;;4.93;1.38;;;;;;;24.44;41.47;100402.94;5014827;28;20082;-61
2021/07/31 03:10:54;;;;;;;3.97;0.88;;;;;;;24.42;40.83;100404.25;5015195;28;20462;-62
2021/07/31 03:13:20;;;;;;;2.05;0.82;;;;;;;24.43;41.38;100404.00;5016245;28;20030;-61
2021/07/31 03:15:46;;;;;;;4.10;2.55;;;;;;;24.42;41.36;100405.09;5016182;28;20025;-61
2021/07/31 03:18:11;;;;;;;4.63;1.10;;;;;;;24.42;41.60;100391.38;5016595;28;20370;-61
2021/07/31 03:20:36;;;;;;;2.63;1.08;;;;;;;24.42;40.62;100396.88;5015948;28;20030;-61
2021/07/31 03:23:02;;;;;;;5.20;1.20;;;;;;;24.41;40.84;100397.91;5016093;28;20076;-62
2021/07/31 03:25:27;;;;;;;7.95;1.73;;;;;;;24.40;41.41;100390.75;5014471;28;20049;-62
2021/07/31 03:27:52;;;;;;;3.13;1.20;;;;;;;24.38;41.62;100392.06;5015971;28;20030;-62
2021/07/31 03:30:18;;;;;;;2.83;1.40;;;;;;;24.34;41.68;100394.44;5014418;28;20049;-61
2021/07/31 03:32:43;;;;;;;5.53;0.98;;;;;;;24.29;40.89;100406.06;5015536;28;20121;-61
2021/07/31 03:35:08;;;;;;;6.47;0.88;;;;;;;24.23;41.32;100400.69;5015550;28;20172;-61
2021/07/31 03:37:34;;;;;;;2.63;0.90;;;;;;;24.26;41.10;100405.72;5016111;28;20025;-61
2021/07/31 03:39:59;;;;;;;3.58;0.90;;;;;;;24.25;41.54;100409.50;5014296;28;20034;-61
2021/07/31 03:42:25;;;;;;;2.03;0.80;;;;;;;24.22;41.28;100409.94;5014538;28;20049;-61
2021/07/31 03:44:50;;;;;;;2.95;0.95;;;;;;;24.19;40.98;100411.25;5015794;28;20056;-61
2021/07/31 03:47:15;;;;;;;4.18;1.30;;;;;;;24.18;41.15;100409.56;5015648;28;20080;-62
2021/07/31 03:49:41;;;;;;;5.32;1.00;;;;;;;24.16;41.90;100402.66;5014345;28;20370;-61
2021/07/31 03:52:06;;;;;;;2.97;0.93;;;;;;;24.11;41.37;100405.22;5015520;28;20112;-61
2021/07/31 03:54:32;;;;;;;6.45;1.20;;;;;;;24.09;41.50;100402.72;5015416;28;20467;-61
2021/07/31 03:56:58;;;;;;;4.70;1.50;;;;;;;24.07;41.68;100406.72;5014665;28;20072;-61
2021/07/31 03:59:23;;;;;;;4.43;1.10;;;;;;;24.04;42.54;100420.84;5015615;28;20053;-61
2021/07/31 04:01:48;;;;;;;5.97;1.02;;;;;;;24.05;42.02;100411.59;5015262;28;20037;-61
2021/07/31 04:04:14;;;;;;;12.82;1.23;;;;;;;24.04;42.02;100420.84;5015001;28;20025;-61
2021/07/31 04:06:39;;;;;;;2.58;0.95;;;;;;;24.05;42.32;100414.31;5013690;28;20033;-61
2021/07/31 04:09:04;;;;;;;2.50;1.55;;;;;;;24.07;42.42;100423.13;5014945;28;20030;-61
2021/07/31 04:11:30;;;;;;;3.05;1.70;;;;;;;24.08;42.01;100422.06;5014908;28;20018;-61
2021/07/31 04:13:55;;;;;;;1.52;1.05;;;;;;;24.10;42.35;100433.66;5014843;28;20028;-61
2021/07/31 04:16:21;;;;;;;3.42;1.20;;;;;;;24.06;41.88;100426.94;5013026;28;20026;-61
2021/07/31 04:18:47;;;;;;;3.33;1.08;;;;;;;24.08;42.01;100433.03;5015095;28;20033;-61
2021/07/31 04:21:12;;;;;;;1.27;0.95;;;;;;;24.07;42.07;100434.06;5015023;28;20026;-61
2021/07/31 04:23:37;;;;;;;1.30;0.73;;;;;;;24.10;42.71;100439.13;5015035;28;20378;-61
2021/07/31 04:26:13;;;;;;;6.28;0.98;;;;;;;24.09;42.56;100437.44;5013779;28;20355;-61
2021/07/31 04:28:39;;;;;;;2.78;1.10;;;;;;;24.10;42.89;100445.44;5014919;28;20099;-61
2021/07/31 04:31:11;;;;;;;3.80;1.50;;;;;;;24.12;42.00;100447.97;5014923;28;20026;-61
2021/07/31 04:33:37;;;;;;;5.95;0.88;;;;;;;24.12;42.07;100447.97;5013534;28;20426;-61
2021/07/31 04:36:02;;;;;;;5.50;1.60;;;;;;;24.12;43.01;100461.66;5014428;28;20029;-62
2021/07/31 04:38:29;;;;;;;2.30;1.10;;;;;;;24.12;42.10;100458.94;5015115;28;20053;-62
2021/07/31 04:40:54;;;;;;;3.55;1.10;;;;;;;24.13;42.69;100449.63;5014684;28;20394;-62
2021/07/31 04:43:20;;;;;;;2.70;1.05;;;;;;;24.15;42.11;100463.91;5014673;28;20021;-61
2021/07/31 04:45:45;;;;;;;4.07;1.40;;;;;;;24.15;42.95;100463.91;5014619;28;20022;-61
2021/07/31 04:48:10;;;;;;;2.60;1.13;;;;;;;24.15;42.03;100456.56;5014338;28;20022;-61
2021/07/31 04:50:36;;;;;;;4.82;2.08;;;;;;;24.17;42.36;100462.66;5014543;28;20030;-61
2021/07/31 04:53:01;;;;;;;5.45;1.52;;;;;;;24.21;41.92;100463.03;5014716;28;20129;-61
2021/07/31 04:55:26;;;;;;;4.18;1.20;;;;;;;24.22;42.32;100465.53;5014735;28;20061;-61
2021/07/31 04:57:52;;;;;;;3.10;1.13;;;;;;;24.23;42.02;100460.91;5014824;28;20021;-61
2021/07/31 05:00:17;;;;;;;2.10;1.40;;;;;;;24.27;42.34;100470.31;5014684;28;20030;-61
2021/07/31 05:02:42;;;;;;;1.67;1.00;;;;;;;24.28;41.78;100458.31;5012932;28;20036;-62
2021/07/31 05:05:09;;;;;;;2.88;1.20;;;;;;;24.32;42.54;100465.84;5014416;28;20034;-61
2021/07/31 05:07:34;;;;;;;2.30;1.42;;;;;;;24.33;43.02;100470.25;5013914;28;20108;-62
2021/07/31 05:09:59;;;;;;;2.72;1.10;;;;;;;24.31;42.56;100463.34;5014028;28;20030;-61
2021/07/31 05:12:25;;;;;;;3.15;1.30;;;;;;;24.28;42.63;100463.81;5014591;28;20045;-61
2021/07/31 05:14:51;;;;;;;4.90;1.40;;;;;;;24.29;42.29;100471.78;5013874;28;20061;-61
2021/07/31 05:17:19;;;;;;;10.07;1.27;;;;;;;24.32;42.67;100481.44;5013247;28;20026;-61
2021/07/31 05:19:45;;;;;;;1.15;1.00;;;;;;;24.36;42.47;100479.09;5013788;28;20026;-61
2021/07/31 05:22:11;;;;;;;3.65;0.80;;;;;;;24.32;42.61;100473.22;5014166;28;20026;-61
2021/07/31 05:24:36;;;;;;;3.50;1.05;;;;;;;24.44;41.98;100490.56;5013814;28;20026;-61
2021/07/31 05:27:02;;;;;;;2.17;1.17;;;;;;;24.51;42.13;100501.47;5013642;28;20061;-61
2021/07/31 05:29:27;;;;;;;4.28;1.00;;;;;;;24.59;41.99;100504.75;5014060;28;20029;-62
2021/07/31 05:31:52;;;;;;;2.80;0.93;;;;;;;24.65;42.52;100498.31;5014185;28;20463;-62
2021/07/31 05:34:18;;;;;;;3.95;0.88;;;;;;;24.70;42.13;100506.72;5013515;28;20033;-61
2021/07/31 05:36:43;;;;;;;1.80;1.10;;;;;;;24.76;42.58;100494.81;5013864;28;20025;-62
2021/07/31 05:39:08;;;;;;;2.75;1.30;;;;;;;24.83;41.84;100505.75;5013949;28;20032;-61
2021/07/31 05:41:34;;;;;;;7.10;1.30;;;;;;;24.87;42.36;100498.75;5013642;28;20080;-61
2021/07/31 05:43:59;;;;;;;5.03;1.25;;;;;;;24.96;42.43;100500.06;5014248;28;20025;-62
2021/07/31 05:46:25;;;;;;;3.60;1.33;;;;;;;25.14;42.10;100499.22;5013591;28;20091;-62
2021/07/31 05:48:50;;;;;;;3.03;1.00;;;;;;;25.16;41.73;100495.16;5013862;28;20029;-61
2021/07/31 05:51:16;;;;;;;3.65;1.50;;;;;;;25.33;42.07;100496.19;5013808;28;20032;-61
2021/07/31 05:53:42;;;;;;;5.75;1.40;;;;;;;25.45;41.87;100499.81;5013685;28;20049;-61
2021/07/31 05:56:11;;;;;;;2.88;1.00;;;;;;;25.57;41.65;100501.78;5013107;28;20030;-61
2021/07/31 05:58:37;;;;;;;5.63;1.40;;;;;;;25.81;41.06;100485.13;5013301;28;20105;-61
2021/07/31 06:01:05;;;;;;;4.32;1.45;;;;;;;26.03;40.93;100499.94;5013769;28;20054;-61
2021/07/31 06:03:32;;;;;;;1.95;1.15;;;;;;;26.26;40.69;100495.53;5013734;28;20430;-60
2021/07/31 06:05:58;;;;;;;4.45;2.33;;;;;;;26.42;40.71;100489.31;5013624;28;20048;-60
2021/07/31 06:08:23;;;;;;;5.95;1.13;;;;;;;26.59;40.54;100493.00;5013274;28;20049;-59
2021/07/31 06:10:48;;;;;;;2.72;1.40;;;;;;;26.68;40.22;100494.28;5012837;28;20026;-59
2021/07/31 06:13:14;;;;;;;4.57;1.70;;;;;;;26.83;40.44;100494.63;5013622;28;20378;-59
2021/07/31 06:15:43;;;;;;;1.67;1.08;;;;;;;27.00;40.11;100500.19;5013643;28;20428;-59
2021/07/31 06:18:10;;;;;;;3.63;0.80;;;;;;;27.14;40.32;100505.16;5012686;28;20033;-59
2021/07/31 06:20:35;;;;;;;2.03;0.90;;;;;;;27.25;40.01;100499.88;5013572;28;20108;-60
2021/07/31 06:23:01;;;;;;;8.88;1.60;;;;;;;27.46;39.36;100502.78;5013195;28;20053;-59
2021/07/31 06:25:26;;;;;;;1.92;1.63;;;;;;;27.36;40.38;100497.03;5012338;28;20029;-60
2021/07/31 06:27:55;;;;;;;2.28;1.13;;;;;;;27.39;39.78;100501.22;5013468;28;20097;-60
2021/07/31 06:30:21;;;;;;;2.88;1.08;;;;;;;27.48;40.20;100495.09;5013726;28;20110;-60
2021/07/31 06:32:49;;;;;;;3.80;0.80;;;;;;;27.60;39.39;100503.28;5013295;28;20105;-59
2021/07/31 06:35:15;;;;;;;5.57;1.50;;;;;;;27.61;39.98;100516.00;5013343;28;20025;-59
2021/07/31 06:37:41;;;;;;;3.53;1.27;;;;;;;27.36;40.09;100512.75;5013721;28;20494;-59
2021/07/31 06:40:07;;;;;;;5.35;1.10;;;;;;;27.34;40.04;100521.22;5016160;28;20582;-60
2021/07/31 06:42:33;;;;;;;3.00;1.25;;;;;;;27.38;39.10;100527.06;5016565;28;20033;-59
2021/07/31 06:44:58;;;;;;;5.93;1.30;;;;;;;27.16;39.48;100519.50;5016986;28;20022;-60
2021/07/31 06:47:23;;;;;;;5.28;1.50;;;;;;;26.95;40.01;100517.44;5016513;28;20034;-59
2021/07/31 06:49:49;;;;;;;5.63;1.30;;;;;;;26.90;39.77;100527.50;5016750;28;20053;-59
2021/07/31 06:52:15;;;;;;;1.80;1.30;;;;;;;26.79;40.37;100523.69;5016430;28;20022;-60
2021/07/31 06:54:41;;;;;;;5.15;1.20;;;;;;;26.68;40.47;100526.44;5014427;28;20030;-60
2021/07/31 06:57:10;;;;;;;4.93;1.20;;;;;;;26.59;40.21;100547.94;5004042;28;20032;-59
2021/07/31 06:59:36;;;;;;;3.60;1.33;;;;;;;26.48;40.69;100535.06;4995513;28;20378;-59
2021/07/31 07:02:01;;;;;;;1.90;1.05;;;;;;;26.36;40.35;100531.47;5012268;28;20021;-59
2021/07/31 07:04:27;;;;;;;6.35;1.27;;;;;;;26.21;40.27;100526.50;5016150;28;20084;-59
2021/07/31 07:06:52;;;;;;;7.90;1.08;;;;;;;26.20;40.76;100540.44;5016210;28;20057;-59
2021/07/31 07:09:17;;;;;;;5.15;1.58;;;;;;;26.14;40.68;100542.22;5016039;28;20117;-60
2021/07/31 07:11:43;;;;;;;4.07;1.27;;;;;;;26.14;40.77;100541.38;5015150;28;20097;-60
2021/07/31 07:14:09;;;;;;;4.40;1.58;;;;;;;26.06;40.78;100545.28;5007754;28;20023;-60
2021/07/31 07:16:35;;;;;;;2.00;1.10;;;;;;;25.99;40.83;100550.88;4978914;28;20542;-60
2021/07/31 07:19:00;;;;;;;5.53;1.77;;;;;;;25.95;41.10;100544.22;4996550;28;20026;-62
2021/07/31 07:21:25;;;;;;;4.40;1.20;;;;;;;25.95;41.33;100537.88;4996305;28;20023;-60
2021/07/31 07:23:51;;;;;;;5.25;1.10;;;;;;;25.88;41.17;100540.72;4978798;28;20034;-59
2021/07/31 07:26:16;;;;;;;4.32;1.10;;;;;;;25.90;41.14;100557.81;4996787;28;20058;-59
2021/07/31 07:28:41;;;;;;;6.68;1.40;;;;;;;25.93;40.88;100540.03;4996402;28;20026;-59
2021/07/31 07:31:10;;;;;;;1.58;0.77;;;;;;;25.89;41.36;100556.13;4996418;28;20022;-59
2021/07/31 07:33:36;;;;;;;7.97;1.55;;;;;;;25.85;41.35;100552.16;4996492;28;20077;-60
2021/07/31 07:36:01;;;;;;;2.03;1.15;;;;;;;25.88;41.16;100565.44;4996325;28;20026;-61
2021/07/31 07:38:27;;;;;;;2.97;1.35;;;;;;;25.91;41.27;100553.97;4996241;28;20495;-64
2021/07/31 07:40:52;;;;;;;4.43;1.30;;;;;;;25.87;41.03;100561.03;5007501;28;20112;-61
2021/07/31 07:43:18;;;;;;;7.53;1.17;;;;;;;25.84;40.97;100561.50;5014486;28;20513;-61
2021/07/31 07:45:45;;;;;;;3.80;1.52;;;;;;;25.84;41.13;100561.50;5014620;28;20025;-61
2021/07/31 07:48:10;;;;;;;3.95;2.13;;;;;;;25.85;41.09;100563.16;5015624;28;20076;-59
2021/07/31 07:50:36;;;;;;;5.60;1.75;;;;;;;25.81;41.08;100561.97;5013793;28;20474;-60
2021/07/31 07:53:01;;;;;;;3.85;1.15;;;;;;;25.85;41.19;100565.91;5015186;28;20072;-60
2021/07/31 07:55:27;;;;;;;1.45;1.10;;;;;;;25.91;40.96;100575.94;5014811;28;20037;-62
2021/07/31 07:57:52;;;;;;;2.25;1.05;;;;;;;25.91;41.34;100569.59;5015156;28;20534;-62
2021/07/31 08:00:17;;;;;;;3.50;1.10;;;;;;;26.03;41.26;100563.09;5015150;28;20032;-63
2021/07/31 08:02:43;;;;;;;1.42;0.90;;;;;;;26.50;40.73;100576.88;5015372;28;20032;-63
2021/07/31 08:05:11;;;;;;;3.38;1.17;;;;;;;26.96;39.71;100567.78;5015260;28;20467;-62
2021/07/31 08:07:37;;;;;;;4.70;1.02;;;;;;;27.09;39.64;100579.31;5015008;28;20046;-60
2021/07/31 08:10:02;;;;;;;5.72;1.08;;;;;;;27.46;39.38;100587.25;5015234;28;20104;-60
2021/07/31 08:12:27;;;;;;;2.72;1.38;;;;;;;27.91;38.87;100581.75;5014966;28;20029;-60
2021/07/31 08:14:53;;;;;;;5.80;1.33;;;;;;;28.10;39.34;100578.56;5015212;28;20064;-60
2021/07/31 08:17:18;;;;;;;1.65;1.10;;;;;;;28.22;38.66;100573.81;5013557;28;20029;-60
2021/07/31 08:19:44;;;;;;;5.82;1.45;;;;;;;28.41;38.32;100565.25;4997241;28;20025;-60
2021/07/31 08:22:09;;;;;;;3.90;1.40;;;;;;;28.65;38.44;100581.38;5014663;28;20022;-59
2021/07/31 08:24:34;;;;;;;1.52;1.42;;;;;;;28.71;38.77;100576.75;5015059;28;20064;-59
2021/07/31 08:27:00;;;;;;;2.35;1.15;;;;;;;28.83;38.94;100564.53;5015196;28;20117;-60
2021/07/31 08:29:25;;;;;;;2.38;0.93;;;;;;;29.15;37.98;100577.59;5014861;28;20060;-60
2021/07/31 08:31:50;;;;;;;2.33;0.90;;;;;;;29.72;37.64;100575.25;5014561;28;20026;-60
2021/07/31 08:34:17;;;;;;;2.08;1.10;;;;;;;29.77;37.50;100576.13;5014638;28;20026;-60
2021/07/31 08:36:42;;;;;;;2.28;1.10;;;;;;;30.11;37.12;100571.22;5014787;28;20022;-60
2021/07/31 08:39:08;;;;;;;1.40;0.95;;;;;;;30.41;36.45;100582.56;5015005;28;20029;-60
2021/07/31 08:41:33;;;;;;;1.48;0.90;;;;;;;30.75;36.13;100576.69;5014652;28;20041;-60
2021/07/31 08:44:00;;;;;;;1.55;0.90;;;;;;;31.13;35.77;100585.47;5014336;28;20014;-61
2021/07/31 08:46:26;;;;;;;2.10;0.85;;;;;;;30.92;36.01;100583.72;5013043;28;20406;-60
2021/07/31 08:48:53;;;;;;;3.10;0.80;;;;;;;31.11;35.52;100575.78;4996693;28;20026;-61
2021/07/31 08:51:19;;;;;;;2.33;1.15;;;;;;;31.30;35.40;100579.72;5013309;28;20029;-61
2021/07/31 08:53:44;;;;;;;3.28;1.05;;;;;;;31.08;35.31;100587.41;5008638;28;20034;-60
2021/07/31 08:56:09;;;;;;;1.77;0.95;;;;;;;30.62;36.23;100583.53;4995231;28;20378;-60
2021/07/31 08:58:41;;;;;;;240.20;41.15;;;;;;;30.22;36.47;100584.03;4994615;28;20041;-62
2021/07/31 09:01:06;;;;;;;82.15;14.45;;;;;;;29.95;36.18;100594.31;4994576;28;20438;-61
2021/07/31 09:03:54;;;;;;;25.35;2.55;;;;;;;29.88;36.62;100602.81;4994671;28;20026;-60
2021/07/31 09:06:27;;;;;;;81.05;11.43;;;;;;;30.12;35.82;100596.94;4994244;28;20042;-60
2021/07/31 09:08:53;;;;;;;2.08;1.02;;;;;;;30.04;36.18;100589.13;4994047;28;20050;-60
2021/07/31 09:11:18;;;;;;;3.50;0.80;;;;;;;29.93;35.96;100602.00;4993430;28;20036;-60
2021/07/31 09:13:44;;;;;;;2.75;1.13;;;;;;;29.74;35.92;100604.28;4994420;28;20034;-60
2021/07/31 09:16:11;;;;;;;3.17;0.95;;;;;;;29.62;36.30;100603.59;4994365;28;20522;-60
2021/07/31 09:18:42;;;;;;;4.63;1.25;;;;;;;29.48;36.49;100604.28;4994510;28;20117;-60
2021/07/31 09:21:13;;;;;;;3.03;0.80;;;;;;;29.39;36.48;100621.31;4994426;28;20050;-60
2021/07/31 09:23:50;;;;;;;3.10;0.90;;;;;;;29.25;36.32;100610.91;4994605;28;20485;-60
2021/07/31 09:26:26;;;;;;;2.00;1.10;;;;;;;29.33;35.73;100610.44;4994188;28;20105;-60
2021/07/31 09:29:03;;;;;;;2.70;0.88;;;;;;;29.97;35.71;100611.44;4993271;28;20023;-60
2021/07/31 09:31:30;;;;;;;1.58;0.60;;;;;;;30.44;34.71;100598.63;4994657;28;20092;-59
2021/07/31 09:33:59;;;;;;;3.05;0.80;;;;;;;31.02;34.66;100596.78;4976549;28;20113;-58
2021/07/31 09:36:44;;;;;;;0.55;0.47;;;;;;;31.46;34.30;100594.47;4994565;28;20027;-59
2021/07/31 09:39:10;;;;;;;1.65;1.10;;;;;;;31.65;33.89;100599.28;4994321;28;20388;-59
2021/07/31 09:41:38;;;;;;;3.10;0.70;;;;;;;31.32;34.11;100583.09;4994561;28;20110;-60
2021/07/31 09:44:13;;;;;;;2.40;0.85;;;;;;;31.02;34.76;100588.47;4994218;28;20069;-61
2021/07/31 09:46:49;;;;;;;1.83;0.70;;;;;;;30.82;34.92;100599.41;4994404;28;20422;-59
2021/07/31 09:49:15;;;;;;;1.23;0.82;;;;;;;31.17;34.20;100596.84;4994617;28;20355;-59
2021/07/31 09:51:44;;;;;;;1.27;1.05;;;;;;;31.41;33.73;100592.50;4994241;28;20105;-60
2021/07/31 09:54:11;;;;;;;1.92;0.68;;;;;;;31.69;33.63;100600.38;4994112;28;20026;-60
2021/07/31 09:56:41;;;;;;;1.42;0.95;;;;;;;32.29;33.36;100590.47;4992858;28;20085;-60
2021/07/31 09:59:07;;;;;;;2.28;1.08;;;;;;;32.76;32.48;100591.00;4994177;28;20380;-60
2021/07/31 10:01:40;;;;;;;3.28;1.27;;;;;;;33.42;32.00;100595.50;4994141;28;20061;-61
2021/07/31 10:04:05;;;;;;;1.55;1.08;;;;;;;33.28;32.15;100590.56;4992591;28;20440;-60
2021/07/31 10:06:31;;;;;;;1.52;1.30;;;;;;;33.57;31.57;100607.38;4994250;28;20054;-60
2021/07/31 10:08:59;;;;;;;1.77;0.88;;;;;;;33.50;31.69;100592.97;4993560;28;20046;-60
2021/07/31 10:11:26;;;;;;;2.70;1.23;;;;;;;33.48;32.46;100602.69;4992520;28;20045;-61
2021/07/31 10:13:52;;;;;;;2.75;0.57;;;;;;;34.50;30.24;100598.94;4995927;28;20027;-61
2021/07/31 10:16:18;;;;;;;1.08;0.98;;;;;;;34.89;29.64;100599.66;4996300;28;20037;-62
2021/07/31 10:19:01;;;;;;;5.13;0.75;;;;;;;34.01;31.21;100603.75;4997730;28;20026;-61
2021/07/31 10:21:27;;;;;;;1.70;0.80;;;;;;;34.04;30.43;100601.22;4997317;28;20026;-61
2021/07/31 10:24:03;;;;;;;1.67;0.90;;;;;;;34.24;29.94;100597.50;4998727;28;20019;-61
2021/07/31 10:26:29;;;;;;;1.67;0.88;;;;;;;33.60;31.81;100609.59;4997338;28;20066;-62
2021/07/31 10:29:32;;;;;;;1.13;0.82;;;;;;;33.21;32.29;100611.41;4997811;28;20029;-61
2021/07/31 10:32:30;;;;;;;1.02;0.80;;;;;;;33.32;31.33;100607.50;4997448;28;20112;-62
2021/07/31 10:34:57;;;;;;;3.05;0.75;;;;;;;33.44;32.17;100610.78;4997280;28;20423;-60
2021/07/31 10:37:32;;;;;;;1.20;0.70;;;;;;;32.93;32.48;100603.72;4997350;28;20388;-62
2021/07/31 10:40:06;;;;;;;2.42;0.80;;;;;;;32.43;32.40;100619.31;4997326;28;20533;-61
2021/07/31 10:42:52;;;;;;;0.88;0.70;;;;;;;31.95;32.45;100620.66;4996968;28;20026;-61
2021/07/31 10:45:23;;;;;;;2.47;0.88;;;;;;;31.64;32.87;100619.75;4989959;28;20121;-61
2021/07/31 10:47:56;;;;;;;2.10;1.10;;;;;;;31.74;32.65;100618.13;4997244;28;20022;-61
2021/07/31 10:50:21;;;;;;;2.13;0.88;;;;;;;32.30;31.77;100617.13;4997127;28;20771;-60
2021/07/31 10:52:54;;;;;;;1.80;0.80;;;;;;;31.98;32.33;100620.09;4996853;28;20026;-61
2021/07/31 10:55:20;;;;;;;1.90;0.82;;;;;;;31.48;33.20;100600.59;4996702;28;20026;-61
2021/07/31 10:57:54;;;;;;;1.17;0.75;;;;;;;31.22;33.42;100626.47;4997083;28;20088;-61
2021/07/31 11:00:26;;;;;;;0.60;0.60;;;;;;;30.90;33.43;100626.59;4996943;28;20034;-62
2021/07/31 11:02:53;;;;;;;3.92;1.23;;;;;;;30.52;34.03;100628.53;4996936;28;20022;-62
2021/07/31 11:05:18;;;;;;;2.75;0.90;;;;;;;30.30;34.40;100632.47;4996807;28;20062;-62
2021/07/31 11:07:58;;;;;;;3.17;0.88;;;;;;;30.13;34.07;100635.34;4996144;28;20081;-61
2021/07/31 11:10:33;;;;;;;3.28;0.98;;;;;;;30.09;33.77;100641.69;4996785;28;20035;-61
2021/07/31 11:12:59;;;;;;;5.57;0.98;;;;;;;29.92;34.15;100633.50;4996733;28;20105;-62
2021/07/31 11:15:24;;;;;;;1.73;0.95;;;;;;;29.82;34.83;100645.28;4995142;28;20109;-61
2021/07/31 11:17:58;;;;;;;2.90;0.82;;;;;;;29.90;34.24;100644.00;4996718;28;20109;-61
2021/07/31 11:20:29;;;;;;;1.15;0.90;;;;;;;30.26;33.76;100645.16;4996640;28;20463;-61
2021/07/31 11:22:56;;;;;;;1.13;1.00;;;;;;;31.05;33.11;100637.75;4996543;28;20443;-61